sensor_id;sensor_type;location;lat;lon;timestamp;P1;durP1;ratioP1;P2;durP2;ratioP2
51296;SDS011;37380;45.186;9.792;2023-02-15T00:02:07;98.82;;;57.88;;
51296;SDS011;37380;45.186;9.792;2023-02-15T00:04:34;109.05;;;62.30;;
51296;SDS011;37380;45.186;9.792;2023-02-15T00:07:14;130.93;;;67.25;;
51296;SDS011;37380;45.186;9.792;2023-02-15T00:09:48;103.95;;;58.45;;
51296;SDS011;37380;45.186;9.792;2023-02-15T00:12:42;89.97;;;54.25;;
51296;SDS011;37380;45.186;9.792;2023-02-15T00:15:09;104.47;;;56.90;;
51296;SDS011;37380;45.186;9.792;2023-02-15T00:17:37;99.78;;;59.40;;
51296;SDS011;37380;45.186;9.792;2023-02-15T00:20:04;102.10;;;56.33;;
51296;SDS011;37380;45.186;9.792;2023-02-15T00:22:38;104.25;;;55.20;;
51296;SDS011;37380;45.186;9.792;2023-02-15T00:25:32;85.55;;;49.00;;
51296;SDS011;37380;45.186;9.792;2023-02-15T00:28:06;82.07;;;46.85;;
51296;SDS011;37380;45.186;9.792;2023-02-15T00:31:08;98.43;;;57.33;;
51296;SDS011;37380;45.186;9.792;2023-02-15T00:34:11;100.50;;;53.85;;
51296;SDS011;37380;45.186;9.792;2023-02-15T00:36:52;91.05;;;48.55;;
51296;SDS011;37380;45.186;9.792;2023-02-15T00:39:19;75.28;;;47.80;;
51296;SDS011;37380;45.186;9.792;2023-02-15T00:41:46;88.15;;;46.40;;
51296;SDS011;37380;45.186;9.792;2023-02-15T00:44:14;93.38;;;54.50;;
51296;SDS011;37380;45.186;9.792;2023-02-15T00:46:41;91.30;;;46.63;;
51296;SDS011;37380;45.186;9.792;2023-02-15T00:49:08;91.45;;;53.20;;
51296;SDS011;37380;45.186;9.792;2023-02-15T00:51:36;92.97;;;51.83;;
51296;SDS011;37380;45.186;9.792;2023-02-15T00:54:04;82.53;;;50.40;;
51296;SDS011;37380;45.186;9.792;2023-02-15T00:56:37;80.60;;;47.58;;
51296;SDS011;37380;45.186;9.792;2023-02-15T00:59:38;94.30;;;49.58;;
51296;SDS011;37380;45.186;9.792;2023-02-15T01:02:32;82.50;;;45.22;;
51296;SDS011;37380;45.186;9.792;2023-02-15T01:05:01;76.25;;;46.47;;
51296;SDS011;37380;45.186;9.792;2023-02-15T01:07:28;75.60;;;46.67;;
51296;SDS011;37380;45.186;9.792;2023-02-15T01:09:54;87.82;;;47.60;;
51296;SDS011;37380;45.186;9.792;2023-02-15T01:12:21;92.35;;;48.38;;
51296;SDS011;37380;45.186;9.792;2023-02-15T01:14:48;81.75;;;43.92;;
51296;SDS011;37380;45.186;9.792;2023-02-15T01:17:15;104.70;;;50.28;;
51296;SDS011;37380;45.186;9.792;2023-02-15T01:19:42;94.05;;;51.20;;
51296;SDS011;37380;45.186;9.792;2023-02-15T01:22:17;76.00;;;47.15;;
51296;SDS011;37380;45.186;9.792;2023-02-15T01:25:12;81.97;;;47.85;;
51296;SDS011;37380;45.186;9.792;2023-02-15T01:27:39;85.82;;;44.03;;
51296;SDS011;37380;45.186;9.792;2023-02-15T01:30:13;83.80;;;44.00;;
51296;SDS011;37380;45.186;9.792;2023-02-15T01:33:14;81.05;;;46.20;;
51296;SDS011;37380;45.186;9.792;2023-02-15T01:36:09;92.65;;;44.88;;
51296;SDS011;37380;45.186;9.792;2023-02-15T01:38:37;90.15;;;51.08;;
51296;SDS011;37380;45.186;9.792;2023-02-15T01:41:06;78.82;;;45.72;;
51296;SDS011;37380;45.186;9.792;2023-02-15T01:43:54;91.30;;;50.97;;
51296;SDS011;37380;45.186;9.792;2023-02-15T01:46:32;86.63;;;49.10;;
51296;SDS011;37380;45.186;9.792;2023-02-15T01:49:06;85.72;;;47.53;;
51296;SDS011;37380;45.186;9.792;2023-02-15T01:51:38;82.45;;;44.78;;
51296;SDS011;37380;45.186;9.792;2023-02-15T01:54:19;79.57;;;45.78;;
51296;SDS011;37380;45.186;9.792;2023-02-15T01:57:00;91.97;;;43.47;;
51296;SDS011;37380;45.186;9.792;2023-02-15T01:59:59;82.05;;;46.78;;
51296;SDS011;37380;45.186;9.792;2023-02-15T02:02:45;82.85;;;44.95;;
51296;SDS011;37380;45.186;9.792;2023-02-15T02:05:41;71.68;;;38.40;;
51296;SDS011;37380;45.186;9.792;2023-02-15T02:08:11;77.80;;;42.28;;
51296;SDS011;37380;45.186;9.792;2023-02-15T02:10:45;70.10;;;38.80;;
51296;SDS011;37380;45.186;9.792;2023-02-15T02:13:46;71.55;;;39.97;;
51296;SDS011;37380;45.186;9.792;2023-02-15T02:16:45;70.43;;;39.90;;
51296;SDS011;37380;45.186;9.792;2023-02-15T02:25:40;72.32;;;37.83;;
51296;SDS011;37380;45.186;9.792;2023-02-15T02:37:37;70.60;;;40.42;;
51296;SDS011;37380;45.186;9.792;2023-02-15T02:46:30;75.57;;;37.05;;
51296;SDS011;37380;45.186;9.792;2023-02-15T02:49:29;73.13;;;34.75;;
51296;SDS011;37380;45.186;9.792;2023-02-15T02:55:18;69.75;;;38.60;;
51296;SDS011;37380;45.186;9.792;2023-02-15T03:03:56;74.32;;;38.80;;
51296;SDS011;37380;45.186;9.792;2023-02-15T03:06:44;78.70;;;35.35;;
51296;SDS011;37380;45.186;9.792;2023-02-15T03:09:44;70.10;;;35.30;;
51296;SDS011;37380;45.186;9.792;2023-02-15T03:15:36;68.30;;;37.38;;
51296;SDS011;37380;45.186;9.792;2023-02-15T03:17:51;67.75;;;36.58;;
51296;SDS011;37380;45.186;9.792;2023-02-15T03:20:29;101.10;;;38.35;;
51296;SDS011;37380;45.186;9.792;2023-02-15T03:23:08;69.72;;;36.80;;
51296;SDS011;37380;45.186;9.792;2023-02-15T03:26:07;72.70;;;41.47;;
51296;SDS011;37380;45.186;9.792;2023-02-15T03:28:38;74.88;;;40.72;;
51296;SDS011;37380;45.186;9.792;2023-02-15T03:31:09;76.80;;;37.72;;
51296;SDS011;37380;45.186;9.792;2023-02-15T03:33:42;72.43;;;37.33;;
51296;SDS011;37380;45.186;9.792;2023-02-15T03:39:18;69.20;;;40.65;;
51296;SDS011;37380;45.186;9.792;2023-02-15T03:41:56;71.00;;;40.45;;
51296;SDS011;37380;45.186;9.792;2023-02-15T03:44:39;64.03;;;34.22;;
51296;SDS011;37380;45.186;9.792;2023-02-15T03:47:49;71.97;;;37.95;;
51296;SDS011;37380;45.186;9.792;2023-02-15T03:50:46;64.90;;;34.58;;
51296;SDS011;37380;45.186;9.792;2023-02-15T03:53:32;71.38;;;40.00;;
51296;SDS011;37380;45.186;9.792;2023-02-15T03:56:06;69.50;;;38.55;;
51296;SDS011;37380;45.186;9.792;2023-02-15T03:59:01;66.40;;;38.53;;
51296;SDS011;37380;45.186;9.792;2023-02-15T04:01:59;66.50;;;37.88;;
51296;SDS011;37380;45.186;9.792;2023-02-15T04:05:06;78.30;;;41.08;;
51296;SDS011;37380;45.186;9.792;2023-02-15T04:07:33;70.55;;;37.92;;
51296;SDS011;37380;45.186;9.792;2023-02-15T04:10:00;69.57;;;40.75;;
51296;SDS011;37380;45.186;9.792;2023-02-15T04:12:46;72.03;;;41.63;;
51296;SDS011;37380;45.186;9.792;2023-02-15T04:15:12;71.68;;;39.42;;
51296;SDS011;37380;45.186;9.792;2023-02-15T04:17:58;82.85;;;40.55;;
51296;SDS011;37380;45.186;9.792;2023-02-15T04:20:25;69.47;;;38.15;;
51296;SDS011;37380;45.186;9.792;2023-02-15T04:23:16;74.85;;;42.67;;
51296;SDS011;37380;45.186;9.792;2023-02-15T04:26:28;65.18;;;36.13;;
51296;SDS011;37380;45.186;9.792;2023-02-15T04:28:55;64.13;;;36.55;;
51296;SDS011;37380;45.186;9.792;2023-02-15T04:31:22;68.82;;;39.15;;
51296;SDS011;37380;45.186;9.792;2023-02-15T04:33:49;71.35;;;40.45;;
51296;SDS011;37380;45.186;9.792;2023-02-15T04:36:16;68.40;;;41.38;;
51296;SDS011;37380;45.186;9.792;2023-02-15T04:38:43;85.78;;;44.05;;
51296;SDS011;37380;45.186;9.792;2023-02-15T04:41:10;84.80;;;39.53;;
51296;SDS011;37380;45.186;9.792;2023-02-15T04:43:39;67.75;;;37.97;;
51296;SDS011;37380;45.186;9.792;2023-02-15T04:46:06;94.53;;;41.40;;
51296;SDS011;37380;45.186;9.792;2023-02-15T04:48:33;79.07;;;41.05;;
51296;SDS011;37380;45.186;9.792;2023-02-15T04:51:04;82.32;;;43.15;;
51296;SDS011;37380;45.186;9.792;2023-02-15T04:53:33;71.15;;;41.17;;
51296;SDS011;37380;45.186;9.792;2023-02-15T04:56:07;79.07;;;42.28;;
51296;SDS011;37380;45.186;9.792;2023-02-15T04:59:09;84.55;;;42.60;;
51296;SDS011;37380;45.186;9.792;2023-02-15T05:02:05;79.50;;;42.38;;
51296;SDS011;37380;45.186;9.792;2023-02-15T05:04:31;78.80;;;43.00;;
51296;SDS011;37380;45.186;9.792;2023-02-15T05:06:58;77.32;;;43.88;;
51296;SDS011;37380;45.186;9.792;2023-02-15T05:09:25;77.78;;;44.72;;
51296;SDS011;37380;45.186;9.792;2023-02-15T05:11:52;84.90;;;46.90;;
51296;SDS011;37380;45.186;9.792;2023-02-15T05:14:19;88.10;;;48.35;;
51296;SDS011;37380;45.186;9.792;2023-02-15T05:16:46;86.80;;;46.80;;
51296;SDS011;37380;45.186;9.792;2023-02-15T05:19:13;84.88;;;46.13;;
51296;SDS011;37380;45.186;9.792;2023-02-15T05:21:40;85.85;;;46.45;;
51296;SDS011;37380;45.186;9.792;2023-02-15T05:24:13;98.85;;;46.33;;
51296;SDS011;37380;45.186;9.792;2023-02-15T05:27:26;93.22;;;45.63;;
51296;SDS011;37380;45.186;9.792;2023-02-15T05:30:11;89.10;;;42.08;;
51296;SDS011;37380;45.186;9.792;2023-02-15T05:32:39;88.97;;;44.33;;
51296;SDS011;37380;45.186;9.792;2023-02-15T05:35:06;83.30;;;44.05;;
51296;SDS011;37380;45.186;9.792;2023-02-15T05:37:34;76.35;;;38.35;;
51296;SDS011;37380;45.186;9.792;2023-02-15T05:40:01;94.50;;;45.95;;
51296;SDS011;37380;45.186;9.792;2023-02-15T05:42:28;91.53;;;44.35;;
51296;SDS011;37380;45.186;9.792;2023-02-15T05:44:54;87.57;;;48.67;;
51296;SDS011;37380;45.186;9.792;2023-02-15T05:47:21;89.88;;;42.67;;
51296;SDS011;37380;45.186;9.792;2023-02-15T05:49:54;86.10;;;44.97;;
51296;SDS011;37380;45.186;9.792;2023-02-15T05:52:55;75.25;;;40.45;;
51296;SDS011;37380;45.186;9.792;2023-02-15T05:55:38;97.20;;;46.15;;
51296;SDS011;37380;45.186;9.792;2023-02-15T05:58:40;71.88;;;40.20;;
51296;SDS011;37380;45.186;9.792;2023-02-15T06:01:41;95.68;;;45.88;;
51296;SDS011;37380;45.186;9.792;2023-02-15T06:04:42;81.03;;;45.38;;
51296;SDS011;37380;45.186;9.792;2023-02-15T06:07:34;82.88;;;43.35;;
51296;SDS011;37380;45.186;9.792;2023-02-15T06:10:01;106.70;;;46.13;;
51296;SDS011;37380;45.186;9.792;2023-02-15T06:12:29;97.20;;;49.08;;
51296;SDS011;37380;45.186;9.792;2023-02-15T06:15:03;92.45;;;47.20;;
51296;SDS011;37380;45.186;9.792;2023-02-15T06:17:57;89.97;;;43.72;;
51296;SDS011;37380;45.186;9.792;2023-02-15T06:20:24;85.85;;;44.35;;
51296;SDS011;37380;45.186;9.792;2023-02-15T06:22:51;84.22;;;45.95;;
51296;SDS011;37380;45.186;9.792;2023-02-15T06:25:18;90.25;;;46.63;;
51296;SDS011;37380;45.186;9.792;2023-02-15T06:27:45;89.20;;;46.60;;
51296;SDS011;37380;45.186;9.792;2023-02-15T06:30:12;78.53;;;41.67;;
51296;SDS011;37380;45.186;9.792;2023-02-15T06:32:40;80.13;;;42.33;;
51296;SDS011;37380;45.186;9.792;2023-02-15T06:35:07;93.50;;;42.33;;
51296;SDS011;37380;45.186;9.792;2023-02-15T06:37:36;75.05;;;38.17;;
51296;SDS011;37380;45.186;9.792;2023-02-15T06:40:03;81.18;;;47.47;;
51296;SDS011;37380;45.186;9.792;2023-02-15T06:42:30;87.53;;;47.45;;
51296;SDS011;37380;45.186;9.792;2023-02-15T06:44:58;81.45;;;42.78;;
51296;SDS011;37380;45.186;9.792;2023-02-15T06:47:26;91.07;;;47.10;;
51296;SDS011;37380;45.186;9.792;2023-02-15T06:49:53;89.68;;;47.10;;
51296;SDS011;37380;45.186;9.792;2023-02-15T06:52:26;92.28;;;46.38;;
51296;SDS011;37380;45.186;9.792;2023-02-15T06:55:27;87.30;;;45.30;;
51296;SDS011;37380;45.186;9.792;2023-02-15T06:58:22;83.22;;;45.50;;
51296;SDS011;37380;45.186;9.792;2023-02-15T07:00:49;84.20;;;45.58;;
51296;SDS011;37380;45.186;9.792;2023-02-15T07:03:18;86.22;;;47.00;;
51296;SDS011;37380;45.186;9.792;2023-02-15T07:05:55;83.15;;;49.15;;
51296;SDS011;37380;45.186;9.792;2023-02-15T07:08:56;93.88;;;47.65;;
51296;SDS011;37380;45.186;9.792;2023-02-15T07:11:57;83.35;;;47.70;;
51296;SDS011;37380;45.186;9.792;2023-02-15T07:15:10;81.03;;;49.17;;
51296;SDS011;37380;45.186;9.792;2023-02-15T07:17:39;82.32;;;53.55;;
51296;SDS011;37380;45.186;9.792;2023-02-15T07:20:14;95.70;;;50.53;;
51296;SDS011;37380;45.186;9.792;2023-02-15T07:23:10;84.35;;;47.58;;
51296;SDS011;37380;45.186;9.792;2023-02-15T07:25:37;83.38;;;49.25;;
51296;SDS011;37380;45.186;9.792;2023-02-15T07:28:10;95.45;;;49.78;;
51296;SDS011;37380;45.186;9.792;2023-02-15T07:31:05;85.18;;;49.85;;
51296;SDS011;37380;45.186;9.792;2023-02-15T07:33:33;98.65;;;53.90;;
51296;SDS011;37380;45.186;9.792;2023-02-15T07:36:02;100.43;;;55.20;;
51296;SDS011;37380;45.186;9.792;2023-02-15T07:38:32;91.15;;;54.53;;
51296;SDS011;37380;45.186;9.792;2023-02-15T07:41:01;93.65;;;56.30;;
51296;SDS011;37380;45.186;9.792;2023-02-15T07:43:32;96.72;;;54.50;;
51296;SDS011;37380;45.186;9.792;2023-02-15T07:46:04;96.60;;;55.95;;
51296;SDS011;37380;45.186;9.792;2023-02-15T07:48:34;88.65;;;51.28;;
51296;SDS011;37380;45.186;9.792;2023-02-15T07:51:03;96.78;;;52.22;;
51296;SDS011;37380;45.186;9.792;2023-02-15T07:53:31;90.45;;;52.70;;
51296;SDS011;37380;45.186;9.792;2023-02-15T07:56:07;98.35;;;52.08;;
51296;SDS011;37380;45.186;9.792;2023-02-15T07:59:10;95.85;;;51.33;;
51296;SDS011;37380;45.186;9.792;2023-02-15T08:02:05;83.32;;;50.67;;
51296;SDS011;37380;45.186;9.792;2023-02-15T08:04:36;90.53;;;57.72;;
51296;SDS011;37380;45.186;9.792;2023-02-15T08:07:09;87.70;;;52.22;;
51296;SDS011;37380;45.186;9.792;2023-02-15T08:10:10;88.15;;;53.97;;
51296;SDS011;37380;45.186;9.792;2023-02-15T08:13:25;95.57;;;55.63;;
51296;SDS011;37380;45.186;9.792;2023-02-15T08:15:52;91.22;;;58.00;;
51296;SDS011;37380;45.186;9.792;2023-02-15T08:18:19;90.50;;;57.22;;
51296;SDS011;37380;45.186;9.792;2023-02-15T08:20:52;99.63;;;56.05;;
51296;SDS011;37380;45.186;9.792;2023-02-15T08:23:47;91.72;;;53.25;;
51296;SDS011;37380;45.186;9.792;2023-02-15T08:26:14;95.82;;;54.78;;
51296;SDS011;37380;45.186;9.792;2023-02-15T08:28:41;86.40;;;54.33;;
51296;SDS011;37380;45.186;9.792;2023-02-15T08:31:15;85.13;;;52.65;;
51296;SDS011;37380;45.186;9.792;2023-02-15T08:34:10;93.88;;;55.88;;
51296;SDS011;37380;45.186;9.792;2023-02-15T08:36:41;97.45;;;61.78;;
51296;SDS011;37380;45.186;9.792;2023-02-15T08:39:08;96.95;;;61.38;;
51296;SDS011;37380;45.186;9.792;2023-02-15T08:41:36;97.53;;;61.55;;
51296;SDS011;37380;45.186;9.792;2023-02-15T08:44:05;106.68;;;66.03;;
51296;SDS011;37380;45.186;9.792;2023-02-15T08:46:35;116.35;;;66.50;;
51296;SDS011;37380;45.186;9.792;2023-02-15T08:49:03;94.13;;;63.95;;
51296;SDS011;37380;45.186;9.792;2023-02-15T08:51:38;93.05;;;60.35;;
51296;SDS011;37380;45.186;9.792;2023-02-15T08:54:33;107.07;;;65.47;;
51296;SDS011;37380;45.186;9.792;2023-02-15T08:57:06;105.57;;;68.93;;
51296;SDS011;37380;45.186;9.792;2023-02-15T09:00:01;117.70;;;69.72;;
51296;SDS011;37380;45.186;9.792;2023-02-15T09:02:37;108.65;;;70.18;;
51296;SDS011;37380;45.186;9.792;2023-02-15T09:05:38;112.00;;;66.68;;
51296;SDS011;37380;45.186;9.792;2023-02-15T09:08:39;102.07;;;66.38;;
51296;SDS011;37380;45.186;9.792;2023-02-15T09:11:43;96.30;;;62.78;;
51296;SDS011;37380;45.186;9.792;2023-02-15T09:14:16;100.95;;;66.25;;
51296;SDS011;37380;45.186;9.792;2023-02-15T09:16:47;103.00;;;67.75;;
51296;SDS011;37380;45.186;9.792;2023-02-15T09:19:18;106.10;;;63.75;;
51296;SDS011;37380;45.186;9.792;2023-02-15T09:21:47;98.82;;;67.10;;
51296;SDS011;37380;45.186;9.792;2023-02-15T09:24:15;114.07;;;64.90;;
51296;SDS011;37380;45.186;9.792;2023-02-15T09:26:43;111.60;;;65.80;;
51296;SDS011;37380;45.186;9.792;2023-02-15T09:29:19;97.07;;;62.25;;
51296;SDS011;37380;45.186;9.792;2023-02-15T09:32:19;94.63;;;65.45;;
51296;SDS011;37380;45.186;9.792;2023-02-15T09:35:20;95.40;;;62.67;;
51296;SDS011;37380;45.186;9.792;2023-02-15T09:38:15;101.90;;;64.47;;
51296;SDS011;37380;45.186;9.792;2023-02-15T09:40:43;82.95;;;57.58;;
51296;SDS011;37380;45.186;9.792;2023-02-15T09:46:51;97.97;;;60.30;;
51296;SDS011;37380;45.186;9.792;2023-02-15T09:54:57;102.63;;;64.00;;
51296;SDS011;37380;45.186;9.792;2023-02-15T09:58:20;97.80;;;61.67;;
51296;SDS011;37380;45.186;9.792;2023-02-15T10:06:31;97.00;;;64.70;;
51296;SDS011;37380;45.186;9.792;2023-02-15T10:12:27;97.85;;;62.38;;
51296;SDS011;37380;45.186;9.792;2023-02-15T10:26:46;94.75;;;61.90;;
51296;SDS011;37380;45.186;9.792;2023-02-15T10:31:48;98.90;;;63.58;;
51296;SDS011;37380;45.186;9.792;2023-02-15T10:34:18;93.93;;;60.50;;
51296;SDS011;37380;45.186;9.792;2023-02-15T10:50:53;90.10;;;62.25;;
51296;SDS011;37380;45.186;9.792;2023-02-15T10:56:23;81.45;;;54.80;;
51296;SDS011;37380;45.186;9.792;2023-02-15T11:03:38;87.18;;;58.58;;
51296;SDS011;37380;45.186;9.792;2023-02-15T11:06:00;99.90;;;58.42;;
51296;SDS011;37380;45.186;9.792;2023-02-15T11:09:04;88.90;;;56.88;;
51296;SDS011;37380;45.186;9.792;2023-02-15T11:12:07;87.70;;;60.63;;
51296;SDS011;37380;45.186;9.792;2023-02-15T11:14:57;111.70;;;58.15;;
51296;SDS011;37380;45.186;9.792;2023-02-15T11:17:57;88.35;;;55.25;;
51296;SDS011;37380;45.186;9.792;2023-02-15T11:20:42;88.90;;;54.72;;
51296;SDS011;37380;45.186;9.792;2023-02-15T11:23:17;91.90;;;58.08;;
51296;SDS011;37380;45.186;9.792;2023-02-15T11:25:46;93.35;;;57.92;;
51296;SDS011;37380;45.186;9.792;2023-02-15T11:28:24;104.28;;;60.90;;
51296;SDS011;37380;45.186;9.792;2023-02-15T11:30:56;106.93;;;60.40;;
51296;SDS011;37380;45.186;9.792;2023-02-15T11:33:35;101.15;;;62.25;;
51296;SDS011;37380;45.186;9.792;2023-02-15T11:36:08;112.75;;;62.60;;
51296;SDS011;37380;45.186;9.792;2023-02-15T11:38:40;104.93;;;63.10;;
51296;SDS011;37380;45.186;9.792;2023-02-15T11:41:11;103.07;;;60.90;;
51296;SDS011;37380;45.186;9.792;2023-02-15T11:46:21;104.63;;;64.47;;
51296;SDS011;37380;45.186;9.792;2023-02-15T11:48:55;114.97;;;66.97;;
51296;SDS011;37380;45.186;9.792;2023-02-15T11:51:49;100.15;;;60.85;;
51296;SDS011;37380;45.186;9.792;2023-02-15T11:54:18;101.93;;;61.08;;
51296;SDS011;37380;45.186;9.792;2023-02-15T11:56:55;102.90;;;61.90;;
51296;SDS011;37380;45.186;9.792;2023-02-15T12:00:30;110.30;;;65.03;;
51296;SDS011;37380;45.186;9.792;2023-02-15T12:03:21;114.38;;;65.93;;
51296;SDS011;37380;45.186;9.792;2023-02-15T12:05:58;106.10;;;63.35;;
51296;SDS011;37380;45.186;9.792;2023-02-15T12:08:37;100.63;;;61.90;;
51296;SDS011;37380;45.186;9.792;2023-02-15T12:11:41;101.57;;;60.40;;
51296;SDS011;37380;45.186;9.792;2023-02-15T12:14:46;102.40;;;61.90;;
51296;SDS011;37380;45.186;9.792;2023-02-15T12:17:49;101.03;;;61.70;;
51296;SDS011;37380;45.186;9.792;2023-02-15T12:22:49;105.70;;;61.40;;
51296;SDS011;37380;45.186;9.792;2023-02-15T12:27:49;94.72;;;58.05;;
51296;SDS011;37380;45.186;9.792;2023-02-15T12:30:25;100.82;;;58.58;;
51296;SDS011;37380;45.186;9.792;2023-02-15T12:35:32;109.73;;;64.43;;
51296;SDS011;37380;45.186;9.792;2023-02-15T12:41:00;99.90;;;60.20;;
51296;SDS011;37380;45.186;9.792;2023-02-15T12:43:35;104.97;;;61.65;;
51296;SDS011;37380;45.186;9.792;2023-02-15T12:49:17;110.28;;;64.05;;
51296;SDS011;37380;45.186;9.792;2023-02-15T12:57:29;100.35;;;59.58;;
51296;SDS011;37380;45.186;9.792;2023-02-15T13:00:26;96.65;;;57.15;;
51296;SDS011;37380;45.186;9.792;2023-02-15T13:02:58;100.93;;;58.40;;
51296;SDS011;37380;45.186;9.792;2023-02-15T13:05:37;111.70;;;64.22;;
51296;SDS011;37380;45.186;9.792;2023-02-15T13:08:13;116.05;;;59.67;;
51296;SDS011;37380;45.186;9.792;2023-02-15T13:11:50;108.30;;;60.65;;
51296;SDS011;37380;45.186;9.792;2023-02-15T13:14:45;102.45;;;56.88;;
51296;SDS011;37380;45.186;9.792;2023-02-15T13:17:41;111.25;;;62.17;;
51296;SDS011;37380;45.186;9.792;2023-02-15T13:20:17;102.68;;;60.20;;
51296;SDS011;37380;45.186;9.792;2023-02-15T13:22:50;123.97;;;61.67;;
51296;SDS011;37380;45.186;9.792;2023-02-15T13:25:21;102.45;;;62.17;;
51296;SDS011;37380;45.186;9.792;2023-02-15T13:28:10;103.00;;;60.38;;
51296;SDS011;37380;45.186;9.792;2023-02-15T13:30:45;103.32;;;63.78;;
51296;SDS011;37380;45.186;9.792;2023-02-15T13:36:29;100.45;;;60.38;;
51296;SDS011;37380;45.186;9.792;2023-02-15T13:51:40;101.18;;;57.47;;
51296;SDS011;37380;45.186;9.792;2023-02-15T13:55:06;100.10;;;60.20;;
51296;SDS011;37380;45.186;9.792;2023-02-15T14:10:10;103.13;;;58.90;;
51296;SDS011;37380;45.186;9.792;2023-02-15T14:26:24;93.15;;;56.17;;
51296;SDS011;37380;45.186;9.792;2023-02-15T14:29:25;102.05;;;55.55;;
51296;SDS011;37380;45.186;9.792;2023-02-15T14:32:05;97.93;;;55.90;;
51296;SDS011;37380;45.186;9.792;2023-02-15T14:37:18;96.18;;;56.80;;
51296;SDS011;37380;45.186;9.792;2023-02-15T14:49:22;101.60;;;57.42;;
51296;SDS011;37380;45.186;9.792;2023-02-15T14:57:22;101.90;;;55.42;;
51296;SDS011;37380;45.186;9.792;2023-02-15T15:00:36;103.47;;;58.33;;
51296;SDS011;37380;45.186;9.792;2023-02-15T15:03:34;100.07;;;53.65;;
51296;SDS011;37380;45.186;9.792;2023-02-15T15:06:03;91.43;;;54.83;;
51296;SDS011;37380;45.186;9.792;2023-02-15T15:08:33;85.15;;;50.92;;
51296;SDS011;37380;45.186;9.792;2023-02-15T15:14:09;97.00;;;53.42;;
51296;SDS011;37380;45.186;9.792;2023-02-15T15:16:47;84.68;;;52.78;;
51296;SDS011;37380;45.186;9.792;2023-02-15T15:22:44;88.93;;;51.45;;
51296;SDS011;37380;45.186;9.792;2023-02-15T15:28:08;92.35;;;53.80;;
51296;SDS011;37380;45.186;9.792;2023-02-15T15:33:35;96.53;;;50.30;;
51296;SDS011;37380;45.186;9.792;2023-02-15T15:42:46;96.35;;;53.50;;
51296;SDS011;37380;45.186;9.792;2023-02-15T15:45:54;96.03;;;57.08;;
51296;SDS011;37380;45.186;9.792;2023-02-15T15:51:17;99.88;;;54.63;;
51296;SDS011;37380;45.186;9.792;2023-02-15T15:53:52;108.60;;;55.03;;
51296;SDS011;37380;45.186;9.792;2023-02-15T15:56:58;96.47;;;54.00;;
51296;SDS011;37380;45.186;9.792;2023-02-15T15:59:56;102.75;;;53.78;;
51296;SDS011;37380;45.186;9.792;2023-02-15T16:02:49;94.07;;;55.25;;
51296;SDS011;37380;45.186;9.792;2023-02-15T16:05:53;97.45;;;57.65;;
51296;SDS011;37380;45.186;9.792;2023-02-15T16:08:48;100.50;;;56.42;;
51296;SDS011;37380;45.186;9.792;2023-02-15T16:11:19;117.45;;;53.42;;
51296;SDS011;37380;45.186;9.792;2023-02-15T16:13:49;104.25;;;57.33;;
51296;SDS011;37380;45.186;9.792;2023-02-15T16:16:27;118.32;;;55.92;;
51296;SDS011;37380;45.186;9.792;2023-02-15T16:19:30;107.43;;;59.85;;
51296;SDS011;37380;45.186;9.792;2023-02-15T16:22:34;121.70;;;56.05;;
51296;SDS011;37380;45.186;9.792;2023-02-15T16:28:23;122.95;;;54.88;;
51296;SDS011;37380;45.186;9.792;2023-02-15T16:33:41;111.05;;;59.70;;
51296;SDS011;37380;45.186;9.792;2023-02-15T16:36:21;94.78;;;55.15;;
51296;SDS011;37380;45.186;9.792;2023-02-15T16:41:50;114.05;;;54.63;;
51296;SDS011;37380;45.186;9.792;2023-02-15T16:44:21;121.35;;;57.97;;
51296;SDS011;37380;45.186;9.792;2023-02-15T16:46:51;117.03;;;59.67;;
51296;SDS011;37380;45.186;9.792;2023-02-15T16:49:27;109.63;;;59.30;;
51296;SDS011;37380;45.186;9.792;2023-02-15T16:52:23;125.68;;;60.92;;
51296;SDS011;37380;45.186;9.792;2023-02-15T16:55:02;151.85;;;61.47;;
51296;SDS011;37380;45.186;9.792;2023-02-15T16:58:05;105.53;;;59.67;;
51296;SDS011;37380;45.186;9.792;2023-02-15T17:01:08;106.05;;;56.33;;
51296;SDS011;37380;45.186;9.792;2023-02-15T17:04:25;122.50;;;59.15;;
51296;SDS011;37380;45.186;9.792;2023-02-15T17:09:25;115.03;;;56.08;;
51296;SDS011;37380;45.186;9.792;2023-02-15T17:11:52;106.80;;;55.13;;
51296;SDS011;37380;45.186;9.792;2023-02-15T17:14:31;112.65;;;56.33;;
51296;SDS011;37380;45.186;9.792;2023-02-15T17:17:39;113.90;;;55.63;;
51296;SDS011;37380;45.186;9.792;2023-02-15T17:20:33;110.75;;;58.45;;
51296;SDS011;37380;45.186;9.792;2023-02-15T17:23:03;154.82;;;62.58;;
51296;SDS011;37380;45.186;9.792;2023-02-15T17:25:36;134.60;;;68.13;;
51296;SDS011;37380;45.186;9.792;2023-02-15T17:28:16;133.75;;;67.15;;
51296;SDS011;37380;45.186;9.792;2023-02-15T17:31:19;118.50;;;63.22;;
51296;SDS011;37380;45.186;9.792;2023-02-15T17:37:32;102.57;;;60.55;;
51296;SDS011;37380;45.186;9.792;2023-02-15T17:40:44;121.63;;;66.38;;
51296;SDS011;37380;45.186;9.792;2023-02-15T17:43:38;119.18;;;70.57;;
51296;SDS011;37380;45.186;9.792;2023-02-15T17:46:05;97.50;;;54.60;;
51296;SDS011;37380;45.186;9.792;2023-02-15T17:48:35;109.78;;;61.75;;
51296;SDS011;37380;45.186;9.792;2023-02-15T17:51:06;106.25;;;65.97;;
51296;SDS011;37380;45.186;9.792;2023-02-15T17:53:38;128.07;;;73.03;;
51296;SDS011;37380;45.186;9.792;2023-02-15T17:56:11;111.68;;;61.08;;
51296;SDS011;37380;45.186;9.792;2023-02-15T17:58:58;102.45;;;56.95;;
51296;SDS011;37380;45.186;9.792;2023-02-15T18:01:36;114.97;;;64.50;;
51296;SDS011;37380;45.186;9.792;2023-02-15T18:04:59;115.28;;;65.88;;
51296;SDS011;37380;45.186;9.792;2023-02-15T18:08:17;139.05;;;65.20;;
51296;SDS011;37380;45.186;9.792;2023-02-15T18:11:04;131.77;;;69.15;;
51296;SDS011;37380;45.186;9.792;2023-02-15T18:13:50;167.48;;;82.68;;
51296;SDS011;37380;45.186;9.792;2023-02-15T18:16:19;134.13;;;77.63;;
51296;SDS011;37380;45.186;9.792;2023-02-15T18:18:49;131.73;;;65.97;;
51296;SDS011;37380;45.186;9.792;2023-02-15T18:21:16;113.18;;;62.55;;
51296;SDS011;37380;45.186;9.792;2023-02-15T18:23:42;124.13;;;69.82;;
51296;SDS011;37380;45.186;9.792;2023-02-15T18:26:20;131.32;;;69.80;;
51296;SDS011;37380;45.186;9.792;2023-02-15T18:29:22;118.75;;;65.47;;
51296;SDS011;37380;45.186;9.792;2023-02-15T18:32:27;111.90;;;61.63;;
51296;SDS011;37380;45.186;9.792;2023-02-15T18:35:00;120.70;;;61.28;;
51296;SDS011;37380;45.186;9.792;2023-02-15T18:37:35;104.07;;;61.17;;
51296;SDS011;37380;45.186;9.792;2023-02-15T18:40:36;99.85;;;57.25;;
51296;SDS011;37380;45.186;9.792;2023-02-15T18:43:30;107.47;;;67.32;;
51296;SDS011;37380;45.186;9.792;2023-02-15T18:46:04;131.45;;;68.35;;
51296;SDS011;37380;45.186;9.792;2023-02-15T18:48:58;119.03;;;65.22;;
51296;SDS011;37380;45.186;9.792;2023-02-15T18:51:52;119.93;;;68.22;;
51296;SDS011;37380;45.186;9.792;2023-02-15T18:54:40;119.45;;;66.55;;
51296;SDS011;37380;45.186;9.792;2023-02-15T18:57:14;125.40;;;67.93;;
51296;SDS011;37380;45.186;9.792;2023-02-15T19:00:17;133.18;;;81.47;;
51296;SDS011;37380;45.186;9.792;2023-02-15T19:03:16;138.10;;;81.93;;